sensor_id;sensor_type;location;lat;lon;timestamp;P1;durP1;ratioP1;P2;durP2;ratioP2
5129;SDS011;2583;50.946;6.954;2023-03-01T00:01:12;7.77;;;6.20;;
5129;SDS011;2583;50.946;6.954;2023-03-01T00:03:42;5.40;;;4.90;;
5129;SDS011;2583;50.946;6.954;2023-03-01T00:06:09;6.43;;;5.80;;
5129;SDS011;2583;50.946;6.954;2023-03-01T00:08:36;6.07;;;5.03;;
5129;SDS011;2583;50.946;6.954;2023-03-01T00:11:13;4.53;;;4.07;;
5129;SDS011;2583;50.946;6.954;2023-03-01T00:13:46;8.60;;;5.53;;
5129;SDS011;2583;50.946;6.954;2023-03-01T00:16:16;5.60;;;4.77;;
5129;SDS011;2583;50.946;6.954;2023-03-01T00:18:45;7.90;;;4.97;;
5129;SDS011;2583;50.946;6.954;2023-03-01T00:21:12;7.43;;;5.00;;
5129;SDS011;2583;50.946;6.954;2023-03-01T00:23:39;8.30;;;5.30;;
5129;SDS011;2583;50.946;6.954;2023-03-01T00:26:07;6.27;;;5.53;;
5129;SDS011;2583;50.946;6.954;2023-03-01T00:28:37;5.37;;;4.83;;
5129;SDS011;2583;50.946;6.954;2023-03-01T00:31:07;5.60;;;5.10;;
5129;SDS011;2583;50.946;6.954;2023-03-01T00:33:36;7.60;;;5.13;;
5129;SDS011;2583;50.946;6.954;2023-03-01T00:36:04;8.03;;;4.80;;
5129;SDS011;2583;50.946;6.954;2023-03-01T00:38:34;5.20;;;4.80;;
5129;SDS011;2583;50.946;6.954;2023-03-01T00:41:04;5.13;;;4.63;;
5129;SDS011;2583;50.946;6.954;2023-03-01T00:43:32;6.10;;;5.60;;
5129;SDS011;2583;50.946;6.954;2023-03-01T00:46:06;6.00;;;5.40;;
5129;SDS011;2583;50.946;6.954;2023-03-01T00:48:34;6.30;;;5.67;;
5129;SDS011;2583;50.946;6.954;2023-03-01T00:53:32;8.43;;;5.07;;
5129;SDS011;2583;50.946;6.954;2023-03-01T00:55:59;5.87;;;5.37;;
5129;SDS011;2583;50.946;6.954;2023-03-01T00:58:26;6.07;;;5.20;;
5129;SDS011;2583;50.946;6.954;2023-03-01T01:00:53;5.30;;;4.90;;
5129;SDS011;2583;50.946;6.954;2023-03-01T01:03:20;6.90;;;6.30;;
5129;SDS011;2583;50.946;6.954;2023-03-01T01:05:47;5.70;;;5.20;;
5129;SDS011;2583;50.946;6.954;2023-03-01T01:08:13;5.37;;;4.87;;
5129;SDS011;2583;50.946;6.954;2023-03-01T01:10:40;6.77;;;5.80;;
5129;SDS011;2583;50.946;6.954;2023-03-01T01:13:10;7.23;;;5.67;;
5129;SDS011;2583;50.946;6.954;2023-03-01T01:15:37;5.77;;;5.20;;
5129;SDS011;2583;50.946;6.954;2023-03-01T01:18:03;5.63;;;5.10;;
5129;SDS011;2583;50.946;6.954;2023-03-01T01:20:30;5.37;;;4.97;;
5129;SDS011;2583;50.946;6.954;2023-03-01T01:22:57;5.93;;;5.33;;
5129;SDS011;2583;50.946;6.954;2023-03-01T01:25:24;5.30;;;4.90;;
5129;SDS011;2583;50.946;6.954;2023-03-01T01:27:51;5.47;;;5.07;;
5129;SDS011;2583;50.946;6.954;2023-03-01T01:30:17;7.03;;;5.80;;
5129;SDS011;2583;50.946;6.954;2023-03-01T01:32:44;6.53;;;5.37;;
5129;SDS011;2583;50.946;6.954;2023-03-01T01:35:11;5.73;;;5.30;;
5129;SDS011;2583;50.946;6.954;2023-03-01T01:37:38;5.60;;;5.20;;
5129;SDS011;2583;50.946;6.954;2023-03-01T01:40:05;6.50;;;5.67;;
5129;SDS011;2583;50.946;6.954;2023-03-01T01:42:32;6.93;;;5.57;;
5129;SDS011;2583;50.946;6.954;2023-03-01T01:47:58;5.77;;;5.33;;
5129;SDS011;2583;50.946;6.954;2023-03-01T01:50:29;5.27;;;4.80;;
5129;SDS011;2583;50.946;6.954;2023-03-01T01:53:05;6.07;;;5.50;;
5129;SDS011;2583;50.946;6.954;2023-03-01T01:55:37;6.70;;;5.90;;
5129;SDS011;2583;50.946;6.954;2023-03-01T01:58:08;5.87;;;5.33;;
5129;SDS011;2583;50.946;6.954;2023-03-01T02:00:37;5.90;;;5.10;;
5129;SDS011;2583;50.946;6.954;2023-03-01T02:03:07;6.03;;;5.50;;
5129;SDS011;2583;50.946;6.954;2023-03-01T02:08:21;7.40;;;5.53;;
5129;SDS011;2583;50.946;6.954;2023-03-01T02:10:51;6.27;;;5.53;;
5129;SDS011;2583;50.946;6.954;2023-03-01T02:13:19;6.00;;;5.50;;
5129;SDS011;2583;50.946;6.954;2023-03-01T02:15:45;6.83;;;6.23;;
5129;SDS011;2583;50.946;6.954;2023-03-01T02:18:14;7.03;;;6.53;;
5129;SDS011;2583;50.946;6.954;2023-03-01T02:23:29;6.57;;;6.07;;
5129;SDS011;2583;50.946;6.954;2023-03-01T02:25:58;9.60;;;6.33;;
5129;SDS011;2583;50.946;6.954;2023-03-01T02:28:35;6.37;;;5.80;;
5129;SDS011;2583;50.946;6.954;2023-03-01T02:31:07;5.80;;;5.30;;
5129;SDS011;2583;50.946;6.954;2023-03-01T02:33:54;6.20;;;5.60;;
5129;SDS011;2583;50.946;6.954;2023-03-01T02:36:26;8.50;;;6.73;;
5129;SDS011;2583;50.946;6.954;2023-03-01T02:38:57;6.40;;;5.90;;
5129;SDS011;2583;50.946;6.954;2023-03-01T02:41:27;8.30;;;5.60;;
5129;SDS011;2583;50.946;6.954;2023-03-01T02:43:56;6.20;;;5.23;;
5129;SDS011;2583;50.946;6.954;2023-03-01T02:46:24;6.50;;;6.00;;
5129;SDS011;2583;50.946;6.954;2023-03-01T02:48:53;6.00;;;5.50;;
5129;SDS011;2583;50.946;6.954;2023-03-01T02:57:09;6.60;;;5.60;;
5129;SDS011;2583;50.946;6.954;2023-03-01T02:59:36;6.37;;;5.87;;
5129;SDS011;2583;50.946;6.954;2023-03-01T03:02:18;6.00;;;5.40;;
5129;SDS011;2583;50.946;6.954;2023-03-01T03:04:48;6.27;;;5.77;;
5129;SDS011;2583;50.946;6.954;2023-03-01T03:07:14;8.50;;;7.60;;
5129;SDS011;2583;50.946;6.954;2023-03-01T03:09:41;6.73;;;6.10;;
5129;SDS011;2583;50.946;6.954;2023-03-01T03:12:08;9.17;;;6.57;;
5129;SDS011;2583;50.946;6.954;2023-03-01T03:14:35;6.83;;;6.13;;
5129;SDS011;2583;50.946;6.954;2023-03-01T03:17:01;8.67;;;6.23;;
5129;SDS011;2583;50.946;6.954;2023-03-01T03:19:32;7.00;;;6.43;;
5129;SDS011;2583;50.946;6.954;2023-03-01T03:21:59;7.67;;;7.03;;
5129;SDS011;2583;50.946;6.954;2023-03-01T03:24:26;7.50;;;6.73;;
5129;SDS011;2583;50.946;6.954;2023-03-01T03:27:04;7.10;;;6.50;;
5129;SDS011;2583;50.946;6.954;2023-03-01T03:29:32;9.40;;;6.60;;
5129;SDS011;2583;50.946;6.954;2023-03-01T03:31:59;7.47;;;6.57;;
5129;SDS011;2583;50.946;6.954;2023-03-01T03:34:26;7.37;;;6.67;;
5129;SDS011;2583;50.946;6.954;2023-03-01T03:36:56;7.13;;;6.53;;
5129;SDS011;2583;50.946;6.954;2023-03-01T03:39:26;6.37;;;5.77;;
5129;SDS011;2583;50.946;6.954;2023-03-01T03:41:53;6.10;;;5.60;;
5129;SDS011;2583;50.946;6.954;2023-03-01T03:44:21;6.80;;;6.20;;
5129;SDS011;2583;50.946;6.954;2023-03-01T03:46:47;7.10;;;6.20;;
5129;SDS011;2583;50.946;6.954;2023-03-01T03:49:14;8.43;;;6.67;;
5129;SDS011;2583;50.946;6.954;2023-03-01T03:51:41;7.30;;;6.67;;
5129;SDS011;2583;50.946;6.954;2023-03-01T03:54:08;6.83;;;6.30;;
5129;SDS011;2583;50.946;6.954;2023-03-01T03:56:34;7.27;;;6.13;;
5129;SDS011;2583;50.946;6.954;2023-03-01T03:59:01;7.13;;;6.53;;
5129;SDS011;2583;50.946;6.954;2023-03-01T04:01:28;8.57;;;6.87;;
5129;SDS011;2583;50.946;6.954;2023-03-01T04:03:54;7.37;;;6.67;;
5129;SDS011;2583;50.946;6.954;2023-03-01T04:06:21;7.67;;;6.87;;
5129;SDS011;2583;50.946;6.954;2023-03-01T04:08:48;6.80;;;6.30;;
5129;SDS011;2583;50.946;6.954;2023-03-01T04:11:17;6.23;;;5.73;;
5129;SDS011;2583;50.946;6.954;2023-03-01T04:13:55;6.30;;;5.60;;
5129;SDS011;2583;50.946;6.954;2023-03-01T04:16:23;8.00;;;6.67;;
5129;SDS011;2583;50.946;6.954;2023-03-01T04:18:51;7.77;;;7.07;;
5129;SDS011;2583;50.946;6.954;2023-03-01T04:21:19;6.77;;;6.20;;
5129;SDS011;2583;50.946;6.954;2023-03-01T04:23:46;7.30;;;6.60;;
5129;SDS011;2583;50.946;6.954;2023-03-01T04:26:13;8.20;;;7.43;;
5129;SDS011;2583;50.946;6.954;2023-03-01T04:28:41;10.93;;;7.40;;
5129;SDS011;2583;50.946;6.954;2023-03-01T04:31:13;11.73;;;8.03;;
5129;SDS011;2583;50.946;6.954;2023-03-01T04:33:54;8.07;;;7.43;;
5129;SDS011;2583;50.946;6.954;2023-03-01T04:36:22;9.77;;;7.70;;
5129;SDS011;2583;50.946;6.954;2023-03-01T04:38:51;8.17;;;7.43;;
5129;SDS011;2583;50.946;6.954;2023-03-01T04:41:18;8.73;;;7.97;;
5129;SDS011;2583;50.946;6.954;2023-03-01T04:43:47;8.37;;;7.60;;
5129;SDS011;2583;50.946;6.954;2023-03-01T04:46:15;7.90;;;7.20;;
5129;SDS011;2583;50.946;6.954;2023-03-01T04:48:44;9.40;;;7.50;;
5129;SDS011;2583;50.946;6.954;2023-03-01T04:51:11;9.40;;;7.60;;
5129;SDS011;2583;50.946;6.954;2023-03-01T04:53:40;8.53;;;7.73;;
5129;SDS011;2583;50.946;6.954;2023-03-01T04:56:07;8.50;;;7.60;;
5129;SDS011;2583;50.946;6.954;2023-03-01T04:58:33;10.30;;;8.47;;
5129;SDS011;2583;50.946;6.954;2023-03-01T05:01:00;10.60;;;8.77;;
5129;SDS011;2583;50.946;6.954;2023-03-01T05:03:27;8.90;;;8.07;;
5129;SDS011;2583;50.946;6.954;2023-03-01T05:05:54;10.03;;;8.93;;
5129;SDS011;2583;50.946;6.954;2023-03-01T05:08:25;9.73;;;8.73;;
5129;SDS011;2583;50.946;6.954;2023-03-01T05:10:53;8.87;;;8.03;;
5129;SDS011;2583;50.946;6.954;2023-03-01T05:13:20;9.33;;;7.30;;
5129;SDS011;2583;50.946;6.954;2023-03-01T05:15:54;12.93;;;8.83;;
5129;SDS011;2583;50.946;6.954;2023-03-01T05:18:23;9.30;;;7.90;;
5129;SDS011;2583;50.946;6.954;2023-03-01T05:20:54;10.67;;;8.50;;
5129;SDS011;2583;50.946;6.954;2023-03-01T05:23:24;11.30;;;8.57;;
5129;SDS011;2583;50.946;6.954;2023-03-01T05:25:51;9.07;;;8.27;;
5129;SDS011;2583;50.946;6.954;2023-03-01T05:28:19;9.90;;;7.93;;
5129;SDS011;2583;50.946;6.954;2023-03-01T05:30:46;9.70;;;8.67;;
5129;SDS011;2583;50.946;6.954;2023-03-01T05:33:13;10.47;;;7.93;;
5129;SDS011;2583;50.946;6.954;2023-03-01T05:35:41;9.77;;;8.80;;
5129;SDS011;2583;50.946;6.954;2023-03-01T05:38:09;9.30;;;8.40;;
5129;SDS011;2583;50.946;6.954;2023-03-01T05:40:40;8.73;;;7.93;;
5129;SDS011;2583;50.946;6.954;2023-03-01T05:43:12;10.93;;;8.20;;
5129;SDS011;2583;50.946;6.954;2023-03-01T05:45:40;9.13;;;8.30;;
5129;SDS011;2583;50.946;6.954;2023-03-01T05:48:07;9.60;;;8.80;;
5129;SDS011;2583;50.946;6.954;2023-03-01T05:50:37;11.43;;;10.23;;
5129;SDS011;2583;50.946;6.954;2023-03-01T05:53:06;10.80;;;8.00;;
5129;SDS011;2583;50.946;6.954;2023-03-01T05:55:45;10.47;;;8.70;;
5129;SDS011;2583;50.946;6.954;2023-03-01T05:58:14;9.77;;;8.53;;
5129;SDS011;2583;50.946;6.954;2023-03-01T06:00:46;9.10;;;8.20;;
5129;SDS011;2583;50.946;6.954;2023-03-01T06:03:14;9.10;;;8.00;;
5129;SDS011;2583;50.946;6.954;2023-03-01T06:05:43;9.03;;;7.97;;
5129;SDS011;2583;50.946;6.954;2023-03-01T06:08:11;8.90;;;8.10;;
5129;SDS011;2583;50.946;6.954;2023-03-01T06:10:38;8.50;;;7.70;;
5129;SDS011;2583;50.946;6.954;2023-03-01T06:13:05;9.37;;;8.27;;
5129;SDS011;2583;50.946;6.954;2023-03-01T06:15:32;9.90;;;8.90;;
5129;SDS011;2583;50.946;6.954;2023-03-01T06:17:59;9.40;;;8.27;;
5129;SDS011;2583;50.946;6.954;2023-03-01T06:20:27;11.60;;;9.30;;
5129;SDS011;2583;50.946;6.954;2023-03-01T06:22:55;14.50;;;10.00;;
5129;SDS011;2583;50.946;6.954;2023-03-01T06:25:23;10.70;;;9.40;;
5129;SDS011;2583;50.946;6.954;2023-03-01T06:27:51;9.97;;;9.07;;
5129;SDS011;2583;50.946;6.954;2023-03-01T06:30:19;10.17;;;9.23;;
5129;SDS011;2583;50.946;6.954;2023-03-01T06:32:49;13.13;;;9.03;;
5129;SDS011;2583;50.946;6.954;2023-03-01T06:35:16;12.10;;;9.63;;
5129;SDS011;2583;50.946;6.954;2023-03-01T06:37:45;10.43;;;9.27;;
5129;SDS011;2583;50.946;6.954;2023-03-01T06:40:12;10.60;;;9.50;;
5129;SDS011;2583;50.946;6.954;2023-03-01T06:42:40;13.20;;;10.13;;
5129;SDS011;2583;50.946;6.954;2023-03-01T06:45:09;11.27;;;10.13;;
5129;SDS011;2583;50.946;6.954;2023-03-01T06:47:36;9.60;;;8.70;;
5129;SDS011;2583;50.946;6.954;2023-03-01T06:50:03;10.67;;;9.67;;
5129;SDS011;2583;50.946;6.954;2023-03-01T06:52:30;11.27;;;9.80;;
5129;SDS011;2583;50.946;6.954;2023-03-01T06:54:57;10.73;;;9.30;;
5129;SDS011;2583;50.946;6.954;2023-03-01T06:57:24;11.07;;;9.83;;
5129;SDS011;2583;50.946;6.954;2023-03-01T06:59:52;12.87;;;11.37;;
5129;SDS011;2583;50.946;6.954;2023-03-01T07:02:19;11.27;;;10.17;;
5129;SDS011;2583;50.946;6.954;2023-03-01T07:04:45;10.37;;;9.33;;
5129;SDS011;2583;50.946;6.954;2023-03-01T07:07:12;12.63;;;10.40;;
5129;SDS011;2583;50.946;6.954;2023-03-01T07:09:39;13.33;;;10.47;;
5129;SDS011;2583;50.946;6.954;2023-03-01T07:12:06;14.73;;;11.03;;
5129;SDS011;2583;50.946;6.954;2023-03-01T07:14:32;11.90;;;9.70;;
5129;SDS011;2583;50.946;6.954;2023-03-01T07:16:59;10.67;;;9.60;;
5129;SDS011;2583;50.946;6.954;2023-03-01T07:19:26;11.47;;;10.27;;
5129;SDS011;2583;50.946;6.954;2023-03-01T07:21:53;11.13;;;10.03;;
5129;SDS011;2583;50.946;6.954;2023-03-01T07:24:21;16.70;;;11.30;;
5129;SDS011;2583;50.946;6.954;2023-03-01T07:26:49;10.97;;;9.40;;
5129;SDS011;2583;50.946;6.954;2023-03-01T07:29:17;12.43;;;10.27;;
5129;SDS011;2583;50.946;6.954;2023-03-01T07:31:44;10.67;;;9.00;;
5129;SDS011;2583;50.946;6.954;2023-03-01T07:34:11;12.87;;;10.23;;
5129;SDS011;2583;50.946;6.954;2023-03-01T07:36:38;11.20;;;10.10;;
5129;SDS011;2583;50.946;6.954;2023-03-01T07:39:05;11.93;;;9.33;;
5129;SDS011;2583;50.946;6.954;2023-03-01T07:41:32;10.93;;;9.50;;
5129;SDS011;2583;50.946;6.954;2023-03-01T07:43:59;12.10;;;10.37;;
5129;SDS011;2583;50.946;6.954;2023-03-01T07:46:26;11.27;;;10.07;;
5129;SDS011;2583;50.946;6.954;2023-03-01T07:48:53;10.97;;;9.90;;
5129;SDS011;2583;50.946;6.954;2023-03-01T07:51:20;15.40;;;9.90;;
5129;SDS011;2583;50.946;6.954;2023-03-01T07:53:47;11.53;;;10.40;;
5129;SDS011;2583;50.946;6.954;2023-03-01T07:56:15;11.63;;;10.17;;
5129;SDS011;2583;50.946;6.954;2023-03-01T07:58:44;11.30;;;9.57;;
5129;SDS011;2583;50.946;6.954;2023-03-01T08:01:14;14.70;;;10.50;;
5129;SDS011;2583;50.946;6.954;2023-03-01T08:03:42;11.23;;;9.77;;
5129;SDS011;2583;50.946;6.954;2023-03-01T08:06:13;15.17;;;10.03;;
5129;SDS011;2583;50.946;6.954;2023-03-01T08:08:41;10.63;;;9.53;;
5129;SDS011;2583;50.946;6.954;2023-03-01T08:11:10;13.40;;;10.60;;
5129;SDS011;2583;50.946;6.954;2023-03-01T08:13:37;16.53;;;9.73;;
5129;SDS011;2583;50.946;6.954;2023-03-01T08:16:10;13.83;;;9.83;;
5129;SDS011;2583;50.946;6.954;2023-03-01T08:18:38;14.63;;;10.63;;
5129;SDS011;2583;50.946;6.954;2023-03-01T08:21:06;10.73;;;9.63;;
5129;SDS011;2583;50.946;6.954;2023-03-01T08:23:34;15.47;;;10.00;;
5129;SDS011;2583;50.946;6.954;2023-03-01T08:26:08;12.53;;;10.30;;
5129;SDS011;2583;50.946;6.954;2023-03-01T08:28:38;11.73;;;10.50;;
5129;SDS011;2583;50.946;6.954;2023-03-01T08:31:25;14.93;;;11.10;;
5129;SDS011;2583;50.946;6.954;2023-03-01T08:33:56;13.23;;;10.90;;
5129;SDS011;2583;50.946;6.954;2023-03-01T08:36:25;11.00;;;9.93;;
5129;SDS011;2583;50.946;6.954;2023-03-01T08:38:53;16.90;;;11.20;;
5129;SDS011;2583;50.946;6.954;2023-03-01T08:41:20;11.30;;;10.20;;
5129;SDS011;2583;50.946;6.954;2023-03-01T08:43:48;11.00;;;9.87;;
5129;SDS011;2583;50.946;6.954;2023-03-01T08:46:15;16.63;;;10.30;;
5129;SDS011;2583;50.946;6.954;2023-03-01T08:48:42;13.47;;;10.57;;
5129;SDS011;2583;50.946;6.954;2023-03-01T08:51:13;13.57;;;10.77;;
5129;SDS011;2583;50.946;6.954;2023-03-01T08:53:44;11.40;;;10.03;;
5129;SDS011;2583;50.946;6.954;2023-03-01T08:56:12;12.97;;;10.63;;
5129;SDS011;2583;50.946;6.954;2023-03-01T08:58:39;15.50;;;10.60;;
5129;SDS011;2583;50.946;6.954;2023-03-01T09:01:06;11.20;;;10.27;;
5129;SDS011;2583;50.946;6.954;2023-03-01T09:03:37;11.17;;;10.00;;
5129;SDS011;2583;50.946;6.954;2023-03-01T09:06:05;8.87;;;8.00;;
5129;SDS011;2583;50.946;6.954;2023-03-01T09:08:34;14.17;;;9.03;;
5129;SDS011;2583;50.946;6.954;2023-03-01T09:11:06;9.70;;;8.90;;
5129;SDS011;2583;50.946;6.954;2023-03-01T09:13:34;10.00;;;8.83;;
5129;SDS011;2583;50.946;6.954;2023-03-01T09:16:02;10.30;;;9.03;;
5129;SDS011;2583;50.946;6.954;2023-03-01T09:18:30;10.83;;;8.00;;
5129;SDS011;2583;50.946;6.954;2023-03-01T09:21:03;10.90;;;9.10;;
5129;SDS011;2583;50.946;6.954;2023-03-01T09:23:35;9.60;;;8.43;;
5129;SDS011;2583;50.946;6.954;2023-03-01T09:26:05;13.67;;;9.00;;
5129;SDS011;2583;50.946;6.954;2023-03-01T09:28:33;9.13;;;8.23;;
5129;SDS011;2583;50.946;6.954;2023-03-01T09:31:00;9.47;;;8.57;;
5129;SDS011;2583;50.946;6.954;2023-03-01T09:33:28;10.60;;;9.50;;
5129;SDS011;2583;50.946;6.954;2023-03-01T09:35:57;8.23;;;7.60;;
5129;SDS011;2583;50.946;6.954;2023-03-01T09:38:28;11.70;;;9.13;;
5129;SDS011;2583;50.946;6.954;2023-03-01T09:40:55;9.30;;;8.40;;
5129;SDS011;2583;50.946;6.954;2023-03-01T09:46:11;9.40;;;8.53;;
5129;SDS011;2583;50.946;6.954;2023-03-01T09:48:45;9.03;;;7.50;;
5129;SDS011;2583;50.946;6.954;2023-03-01T09:51:22;10.63;;;8.70;;
5129;SDS011;2583;50.946;6.954;2023-03-01T09:53:56;9.70;;;8.80;;
5129;SDS011;2583;50.946;6.954;2023-03-01T10:01:52;8.90;;;8.07;;
5129;SDS011;2583;50.946;6.954;2023-03-01T10:09:37;8.80;;;8.07;;
5129;SDS011;2583;50.946;6.954;2023-03-01T10:12:10;9.23;;;8.00;;
5129;SDS011;2583;50.946;6.954;2023-03-01T10:20:17;8.60;;;7.80;;
5129;SDS011;2583;50.946;6.954;2023-03-01T10:22:48;11.03;;;7.43;;
5129;SDS011;2583;50.946;6.954;2023-03-01T10:28:37;11.30;;;8.30;;
5129;SDS011;2583;50.946;6.954;2023-03-01T10:31:11;8.77;;;7.87;;
5129;SDS011;2583;50.946;6.954;2023-03-01T10:33:41;8.17;;;7.47;;
5129;SDS011;2583;50.946;6.954;2023-03-01T10:36:08;9.10;;;8.30;;
5129;SDS011;2583;50.946;6.954;2023-03-01T10:38:49;8.90;;;8.20;;
5129;SDS011;2583;50.946;6.954;2023-03-01T10:41:20;9.00;;;8.17;;
5129;SDS011;2583;50.946;6.954;2023-03-01T10:43:52;9.23;;;8.33;;
5129;SDS011;2583;50.946;6.954;2023-03-01T10:46:43;10.33;;;9.33;;
5129;SDS011;2583;50.946;6.954;2023-03-01T10:49:22;9.87;;;7.60;;
5129;SDS011;2583;50.946;6.954;2023-03-01T10:51:50;9.80;;;8.60;;
5129;SDS011;2583;50.946;6.954;2023-03-01T10:56:57;9.17;;;7.80;;
5129;SDS011;2583;50.946;6.954;2023-03-01T10:59:29;9.10;;;8.20;;
5129;SDS011;2583;50.946;6.954;2023-03-01T11:07:28;10.37;;;9.33;;
5129;SDS011;2583;50.946;6.954;2023-03-01T11:09:55;9.53;;;8.63;;
5129;SDS011;2583;50.946;6.954;2023-03-01T11:12:22;11.30;;;8.63;;
5129;SDS011;2583;50.946;6.954;2023-03-01T11:14:52;11.77;;;8.00;;
5129;SDS011;2583;50.946;6.954;2023-03-01T11:17:25;11.73;;;9.23;;
5129;SDS011;2583;50.946;6.954;2023-03-01T11:22:44;8.70;;;8.00;;
5129;SDS011;2583;50.946;6.954;2023-03-01T11:25:13;8.60;;;7.80;;
5129;SDS011;2583;50.946;6.954;2023-03-01T11:27:42;9.63;;;8.73;;
5129;SDS011;2583;50.946;6.954;2023-03-01T11:32:50;9.50;;;8.50;;
5129;SDS011;2583;50.946;6.954;2023-03-01T11:35:23;9.80;;;7.60;;
5129;SDS011;2583;50.946;6.954;2023-03-01T11:51:55;9.67;;;8.27;;
5129;SDS011;2583;50.946;6.954;2023-03-01T12:08:32;11.30;;;7.83;;
5129;SDS011;2583;50.946;6.954;2023-03-01T12:11:16;8.53;;;7.77;;
5129;SDS011;2583;50.946;6.954;2023-03-01T12:14:13;8.20;;;7.50;;
5129;SDS011;2583;50.946;6.954;2023-03-01T12:16:59;8.60;;;7.80;;
5129;SDS011;2583;50.946;6.954;2023-03-01T12:31:30;7.80;;;7.10;;
5129;SDS011;2583;50.946;6.954;2023-03-01T12:48:04;12.63;;;11.30;;
5129;SDS011;2583;50.946;6.954;2023-03-01T12:51:06;8.10;;;7.40;;
5129;SDS011;2583;50.946;6.954;2023-03-01T12:53:41;10.40;;;7.53;;
5129;SDS011;2583;50.946;6.954;2023-03-01T12:56:13;9.70;;;8.80;;
5129;SDS011;2583;50.946;6.954;2023-03-01T12:59:02;13.10;;;10.10;;
5129;SDS011;2583;50.946;6.954;2023-03-01T13:09:40;8.13;;;7.30;;
5129;SDS011;2583;50.946;6.954;2023-03-01T13:31:05;11.40;;;7.83;;
5129;SDS011;2583;50.946;6.954;2023-03-01T13:33:39;9.83;;;8.10;;
5129;SDS011;2583;50.946;6.954;2023-03-01T13:38:56;9.03;;;7.73;;
5129;SDS011;2583;50.946;6.954;2023-03-01T13:49:42;9.13;;;8.07;;
5129;SDS011;2583;50.946;6.954;2023-03-01T13:54:51;11.17;;;7.13;;
5129;SDS011;2583;50.946;6.954;2023-03-01T13:57:21;7.53;;;6.90;;
5129;SDS011;2583;50.946;6.954;2023-03-01T13:59:52;8.70;;;8.00;;
5129;SDS011;2583;50.946;6.954;2023-03-01T14:02:19;11.53;;;10.43;;
5129;SDS011;2583;50.946;6.954;2023-03-01T14:04:55;7.27;;;6.77;;
5129;SDS011;2583;50.946;6.954;2023-03-01T14:07:23;8.47;;;6.73;;
5129;SDS011;2583;50.946;6.954;2023-03-01T14:09:51;8.10;;;7.47;;
5129;SDS011;2583;50.946;6.954;2023-03-01T14:15:04;7.67;;;6.93;;
5129;SDS011;2583;50.946;6.954;2023-03-01T14:20:11;7.93;;;6.40;;
5129;SDS011;2583;50.946;6.954;2023-03-01T14:22:54;6.93;;;6.37;;
5129;SDS011;2583;50.946;6.954;2023-03-01T14:25:30;7.70;;;7.00;;
5129;SDS011;2583;50.946;6.954;2023-03-01T14:30:32;6.73;;;6.20;;
5129;SDS011;2583;50.946;6.954;2023-03-01T14:33:05;7.20;;;6.50;;
5129;SDS011;2583;50.946;6.954;2023-03-01T14:35:51;7.77;;;7.07;;
5129;SDS011;2583;50.946;6.954;2023-03-01T14:38:27;8.50;;;7.80;;
5129;SDS011;2583;50.946;6.954;2023-03-01T14:40:59;7.57;;;6.77;;
5129;SDS011;2583;50.946;6.954;2023-03-01T14:43:31;7.40;;;6.80;;
5129;SDS011;2583;50.946;6.954;2023-03-01T14:45:59;8.67;;;7.23;;
5129;SDS011;2583;50.946;6.954;2023-03-01T14:48:27;6.83;;;6.33;;
5129;SDS011;2583;50.946;6.954;2023-03-01T14:50:55;13.87;;;7.60;;
5129;SDS011;2583;50.946;6.954;2023-03-01T14:53:24;8.30;;;7.60;;
5129;SDS011;2583;50.946;6.954;2023-03-01T14:55:59;7.00;;;6.37;;
5129;SDS011;2583;50.946;6.954;2023-03-01T14:58:31;8.07;;;6.63;;
5129;SDS011;2583;50.946;6.954;2023-03-01T15:01:01;7.00;;;6.30;;
5129;SDS011;2583;50.946;6.954;2023-03-01T15:03:34;11.80;;;7.07;;
5129;SDS011;2583;50.946;6.954;2023-03-01T15:06:03;7.20;;;6.60;;
5129;SDS011;2583;50.946;6.954;2023-03-01T15:08:32;8.50;;;6.30;;
5129;SDS011;2583;50.946;6.954;2023-03-01T15:11:04;6.60;;;6.10;;
5129;SDS011;2583;50.946;6.954;2023-03-01T15:13:40;8.30;;;6.20;;
5129;SDS011;2583;50.946;6.954;2023-03-01T15:16:11;7.60;;;7.00;;
5129;SDS011;2583;50.946;6.954;2023-03-01T15:18:47;6.73;;;6.23;;
5129;SDS011;2583;50.946;6.954;2023-03-01T15:21:35;7.20;;;6.50;;
5129;SDS011;2583;50.946;6.954;2023-03-01T15:24:13;7.13;;;6.53;;
5129;SDS011;2583;50.946;6.954;2023-03-01T15:26:50;8.47;;;6.90;;
5129;SDS011;2583;50.946;6.954;2023-03-01T15:29:23;9.27;;;7.43;;
5129;SDS011;2583;50.946;6.954;2023-03-01T15:32:00;8.17;;;6.50;;
5129;SDS011;2583;50.946;6.954;2023-03-01T15:37:01;8.23;;;6.30;;
5129;SDS011;2583;50.946;6.954;2023-03-01T15:39:38;7.90;;;7.10;;
5129;SDS011;2583;50.946;6.954;2023-03-01T15:47:47;13.73;;;7.77;;
5129;SDS011;2583;50.946;6.954;2023-03-01T15:50:37;10.40;;;8.17;;
5129;SDS011;2583;50.946;6.954;2023-03-01T15:53:07;6.90;;;6.20;;
5129;SDS011;2583;50.946;6.954;2023-03-01T15:55:38;11.57;;;7.83;;
5129;SDS011;2583;50.946;6.954;2023-03-01T15:58:20;7.13;;;6.53;;
5129;SDS011;2583;50.946;6.954;2023-03-01T16:00:50;7.00;;;6.37;;
5129;SDS011;2583;50.946;6.954;2023-03-01T16:03:27;10.40;;;6.27;;
5129;SDS011;2583;50.946;6.954;2023-03-01T16:05:54;8.07;;;7.27;;
5129;SDS011;2583;50.946;6.954;2023-03-01T16:08:21;6.37;;;5.87;;
5129;SDS011;2583;50.946;6.954;2023-03-01T16:10:48;6.97;;;6.30;;
5129;SDS011;2583;50.946;6.954;2023-03-01T16:13:17;12.27;;;5.77;;
5129;SDS011;2583;50.946;6.954;2023-03-01T16:15:44;7.97;;;7.13;;
5129;SDS011;2583;50.946;6.954;2023-03-01T16:18:10;7.97;;;7.17;;
5129;SDS011;2583;50.946;6.954;2023-03-01T16:20:38;6.20;;;5.60;;
5129;SDS011;2583;50.946;6.954;2023-03-01T16:23:07;7.30;;;5.90;;
5129;SDS011;2583;50.946;6.954;2023-03-01T16:25:36;6.90;;;6.30;;
5129;SDS011;2583;50.946;6.954;2023-03-01T16:28:04;8.20;;;6.40;;
5129;SDS011;2583;50.946;6.954;2023-03-01T16:30:35;8.47;;;6.63;;
5129;SDS011;2583;50.946;6.954;2023-03-01T16:33:03;9.90;;;7.57;;
5129;SDS011;2583;50.946;6.954;2023-03-01T16:35:49;10.27;;;8.40;;
5129;SDS011;2583;50.946;6.954;2023-03-01T16:38:16;14.20;;;9.00;;
5129;SDS011;2583;50.946;6.954;2023-03-01T16:40:46;13.10;;;8.90;;
5129;SDS011;2583;50.946;6.954;2023-03-01T16:43:15;14.73;;;8.73;;
5129;SDS011;2583;50.946;6.954;2023-03-01T16:45:41;8.50;;;6.50;;
5129;SDS011;2583;50.946;6.954;2023-03-01T16:48:11;11.67;;;6.40;;
5129;SDS011;2583;50.946;6.954;2023-03-01T16:50:38;9.80;;;8.67;;
5129;SDS011;2583;50.946;6.954;2023-03-01T16:53:05;10.80;;;8.43;;
5129;SDS011;2583;50.946;6.954;2023-03-01T16:55:32;12.37;;;7.50;;
5129;SDS011;2583;50.946;6.954;2023-03-01T16:57:59;9.13;;;7.77;;
5129;SDS011;2583;50.946;6.954;2023-03-01T17:00:26;7.53;;;6.93;;
5129;SDS011;2583;50.946;6.954;2023-03-01T17:02:53;7.37;;;6.20;;
5129;SDS011;2583;50.946;6.954;2023-03-01T17:05:20;7.43;;;6.07;;
5129;SDS011;2583;50.946;6.954;2023-03-01T17:07:50;9.40;;;6.07;;
5129;SDS011;2583;50.946;6.954;2023-03-01T17:10:17;8.83;;;6.57;;
5129;SDS011;2583;50.946;6.954;2023-03-01T17:12:43;12.70;;;5.13;;
5129;SDS011;2583;50.946;6.954;2023-03-01T17:15:13;6.10;;;5.50;;
5129;SDS011;2583;50.946;6.954;2023-03-01T17:17:40;8.30;;;5.30;;
5129;SDS011;2583;50.946;6.954;2023-03-01T17:20:07;6.30;;;5.70;;
5129;SDS011;2583;50.946;6.954;2023-03-01T17:22:35;7.27;;;6.10;;
5129;SDS011;2583;50.946;6.954;2023-03-01T17:25:02;6.53;;;6.00;;
5129;SDS011;2583;50.946;6.954;2023-03-01T17:27:29;7.63;;;6.70;;
5129;SDS011;2583;50.946;6.954;2023-03-01T17:30:00;8.97;;;7.93;;
5129;SDS011;2583;50.946;6.954;2023-03-01T17:32:27;7.93;;;7.13;;
5129;SDS011;2583;50.946;6.954;2023-03-01T17:34:55;11.83;;;8.27;;
5129;SDS011;2583;50.946;6.954;2023-03-01T17:37:21;19.13;;;12.40;;
5129;SDS011;2583;50.946;6.954;2023-03-01T17:39:48;20.30;;;11.87;;
5129;SDS011;2583;50.946;6.954;2023-03-01T17:42:15;14.03;;;8.73;;
5129;SDS011;2583;50.946;6.954;2023-03-01T17:44:42;10.40;;;9.30;;
5129;SDS011;2583;50.946;6.954;2023-03-01T17:47:09;11.43;;;8.43;;
5129;SDS011;2583;50.946;6.954;2023-03-01T17:49:36;7.07;;;6.37;;
5129;SDS011;2583;50.946;6.954;2023-03-01T17:52:09;9.07;;;7.10;;
5129;SDS011;2583;50.946;6.954;2023-03-01T17:54:37;9.40;;;8.40;;
5129;SDS011;2583;50.946;6.954;2023-03-01T17:57:05;10.70;;;7.80;;
5129;SDS011;2583;50.946;6.954;2023-03-01T17:59:34;7.47;;;6.70;;
5129;SDS011;2583;50.946;6.954;2023-03-01T18:02:02;8.53;;;7.83;;
5129;SDS011;2583;50.946;6.954;2023-03-01T18:04:29;10.60;;;7.53;;
5129;SDS011;2583;50.946;6.954;2023-03-01T18:06:56;12.43;;;7.10;;
5129;SDS011;2583;50.946;6.954;2023-03-01T18:09:25;7.77;;;6.63;;